Time;durP1;ratioP1;P1;durP2;ratioP2;P2;SDS_P1;SDS_P2;PMS_P1;PMS_P2;Temp;Humidity;BMP_temperature;BMP_pressure;BME280_temperature;BME280_humidity;BME280_pressure;Samples;Min_cycle;Max_cycle;Signal;HPM_P1;HPM_P2
2021/07/07 00:01:55;;;;;;;4.57;4.17;;;16.00;99.90;;;;;;5098127;28;20806;-82
2021/07/07 00:04:22;;;;;;;3.97;3.67;;;15.90;99.90;;;;;;5095398;28;20511;-81
2021/07/07 00:06:49;;;;;;;3.27;2.97;;;15.90;99.90;;;;;;5098143;28;20451;-82
2021/07/07 00:09:16;;;;;;;4.73;2.43;;;15.80;99.90;;;;;;5093410;28;20449;-84
2021/07/07 00:11:43;;;;;;;3.20;2.70;;;15.80;99.90;;;;;;5100001;28;20459;-83
2021/07/07 00:14:11;;;;;;;3.20;2.90;;;15.70;99.90;;;;;;5100748;28;20530;-85
2021/07/07 00:16:38;;;;;;;2.80;2.60;;;15.60;99.90;;;;;;5103137;28;20472;-84
2021/07/07 00:19:05;;;;;;;2.97;2.43;;;15.60;99.90;;;;;;5111187;28;20537;-84
2021/07/07 00:21:33;;;;;;;3.30;3.00;;;15.60;99.90;;;;;;5111577;28;20472;-81
2021/07/07 00:24:00;;;;;;;5.20;2.50;;;15.50;99.90;;;;;;5111487;28;20465;-82
2021/07/07 00:26:27;;;;;;;3.87;2.73;;;15.50;99.90;;;;;;5112313;28;20440;-80
2021/07/07 00:28:53;;;;;;;3.40;3.20;;;15.50;99.90;;;;;;5110572;28;20921;-85
2021/07/07 00:31:22;;;;;;;3.13;2.80;;;15.50;99.90;;;;;;5110571;28;20517;-80
2021/07/07 00:33:49;;;;;;;3.50;2.87;;;15.40;99.90;;;;;;5103538;28;20497;-83
2021/07/07 00:36:16;;;;;;;4.90;2.77;;;15.40;99.90;;;;;;5102592;28;20448;-82
2021/07/07 00:38:43;;;;;;;3.40;2.97;;;15.40;99.90;;;;;;5104002;28;20459;-80
2021/07/07 00:41:10;;;;;;;3.10;2.87;;;15.40;99.90;;;;;;5100133;28;20450;-80
2021/07/07 00:43:37;;;;;;;3.03;2.80;;;15.30;99.90;;;;;;5092957;28;20483;-81
2021/07/07 00:46:04;;;;;;;3.10;2.90;;;15.30;99.90;;;;;;5098164;28;20491;-81
2021/07/07 00:48:32;;;;;;;3.83;3.23;;;15.40;99.90;;;;;;5091565;28;20449;-83
2021/07/07 00:51:00;;;;;;;3.80;3.37;;;15.40;99.90;;;;;;5094152;28;20497;-83
2021/07/07 00:53:28;;;;;;;3.20;3.00;;;15.40;99.90;;;;;;5092710;28;22158;-82
2021/07/07 00:55:58;;;;;;;3.00;2.80;;;15.40;99.90;;;;;;5090353;28;20494;-83
2021/07/07 00:58:26;;;;;;;3.10;2.50;;;15.40;99.90;;;;;;5093999;28;20469;-82
2021/07/07 01:00:54;;;;;;;3.00;2.53;;;15.30;99.90;;;;;;5095551;28;20784;-81
2021/07/07 01:03:20;;;;;;;2.83;2.63;;;15.30;99.90;;;;;;5093730;28;20453;-80
2021/07/07 01:05:49;;;;;;;3.07;2.80;;;15.30;99.90;;;;;;5094161;28;20493;-82
2021/07/07 01:08:15;;;;;;;3.17;2.80;;;15.30;99.90;;;;;;5093456;28;20443;-83
2021/07/07 01:10:42;;;;;;;3.23;2.90;;;15.30;99.90;;;;;;5092547;28;20464;-82
2021/07/07 01:13:09;;;;;;;3.33;2.97;;;15.30;99.90;;;;;;5095921;28;20528;-81
2021/07/07 01:15:37;;;;;;;3.87;2.90;;;15.30;99.90;;;;;;5091617;28;20463;-86
2021/07/07 01:18:05;;;;;;;3.10;2.90;;;15.30;99.90;;;;;;5086996;28;20464;-84
2021/07/07 01:20:31;;;;;;;3.57;2.77;;;15.20;99.90;;;;;;5092772;28;20459;-82
2021/07/07 01:23:00;;;;;;;4.50;3.10;;;15.30;99.90;;;;;;5102446;28;20455;-87
2021/07/07 01:25:27;;;;;;;3.20;3.00;;;15.30;99.90;;;;;;5102351;28;20505;-82
2021/07/07 01:27:54;;;;;;;3.60;3.30;;;15.30;99.90;;;;;;5107167;28;20437;-84
2021/07/07 01:30:23;;;;;;;3.27;3.03;;;15.30;99.90;;;;;;5105369;28;20448;-82
2021/07/07 01:32:50;;;;;;;3.60;3.30;;;15.30;99.90;;;;;;5108192;28;20445;-85
2021/07/07 01:35:18;;;;;;;3.23;2.93;;;15.30;99.90;;;;;;5105338;28;20962;-80
2021/07/07 01:37:46;;;;;;;2.57;2.37;;;15.30;99.90;;;;;;5097015;28;20465;-80
2021/07/07 01:40:16;;;;;;;3.10;2.90;;;15.30;99.90;;;;;;5092671;28;20503;-81
2021/07/07 01:42:43;;;;;;;3.00;2.70;;;15.30;99.90;;;;;;5094114;28;20639;-81
2021/07/07 01:45:14;;;;;;;3.43;3.13;;;15.30;99.90;;;;;;5087076;28;20459;-81
2021/07/07 01:47:42;;;;;;;3.30;3.00;;;15.30;99.90;;;;;;5093793;28;20451;-80
2021/07/07 01:50:12;;;;;;;3.13;2.90;;;15.20;99.90;;;;;;5092074;28;20452;-82
2021/07/07 01:52:39;;;;;;;3.10;2.90;;;15.20;99.90;;;;;;5092077;28;20480;-81
2021/07/07 01:55:06;;;;;;;3.67;3.47;;;15.20;99.90;;;;;;5089378;28;20465;-82
2021/07/07 01:57:44;;;;;;;4.43;3.83;;;15.30;99.90;;;;;;5089078;28;20563;-83
2021/07/07 02:00:12;;;;;;;4.10;3.70;;;15.30;99.90;;;;;;5087627;28;20444;-81
2021/07/07 02:02:39;;;;;;;3.90;3.60;;;15.30;99.90;;;;;;5082900;28;20447;-82
2021/07/07 02:05:08;;;;;;;3.60;3.30;;;15.30;99.90;;;;;;5090564;28;20589;-82
2021/07/07 02:07:35;;;;;;;4.97;3.27;;;15.30;99.90;;;;;;5090345;28;20506;-81
2021/07/07 02:10:02;;;;;;;2.90;2.70;;;15.30;99.90;;;;;;5092123;28;20465;-82
2021/07/07 02:12:29;;;;;;;2.40;2.30;;;15.20;99.90;;;;;;5093210;28;20516;-80
2021/07/07 02:14:57;;;;;;;3.00;2.80;;;15.30;99.90;;;;;;5100183;28;20447;-86
2021/07/07 02:17:24;;;;;;;2.90;2.70;;;15.20;99.90;;;;;;5101081;28;20460;-82
2021/07/07 02:19:53;;;;;;;4.17;3.60;;;15.20;99.90;;;;;;5090970;28;20474;-81
2021/07/07 02:22:21;;;;;;;4.00;3.60;;;15.20;99.90;;;;;;5095005;28;20497;-82
2021/07/07 02:24:47;;;;;;;4.03;3.73;;;15.20;99.90;;;;;;5097855;28;20516;-83
2021/07/07 02:27:14;;;;;;;3.97;3.67;;;15.20;99.90;;;;;;5094367;28;20574;-83
2021/07/07 02:29:41;;;;;;;3.80;3.50;;;15.30;99.90;;;;;;5106740;28;20443;-84
2021/07/07 02:32:09;;;;;;;3.70;3.37;;;15.30;99.90;;;;;;5111051;28;22621;-82
2021/07/07 02:34:36;;;;;;;4.60;3.80;;;15.40;99.90;;;;;;5114360;28;20438;-87
2021/07/07 02:37:04;;;;;;;4.07;2.97;;;15.40;99.90;;;;;;5109761;28;20444;-82
2021/07/07 02:39:31;;;;;;;5.87;3.50;;;15.40;99.90;;;;;;5115762;28;20609;-83
2021/07/07 02:41:58;;;;;;;3.63;3.33;;;15.50;99.90;;;;;;5117474;28;20434;-87
2021/07/07 02:44:25;;;;;;;3.20;2.97;;;15.50;99.90;;;;;;5114078;28;20441;-82
2021/07/07 02:46:52;;;;;;;3.17;2.93;;;15.50;99.90;;;;;;5116806;28;20488;-84
2021/07/07 02:49:21;;;;;;;3.20;3.00;;;15.60;99.90;;;;;;5109379;28;20456;-82
2021/07/07 02:51:48;;;;;;;4.23;3.00;;;15.60;99.90;;;;;;5111053;28;20448;-81
2021/07/07 02:54:15;;;;;;;6.23;3.20;;;15.60;99.90;;;;;;5100929;28;20448;-81
2021/07/07 02:56:42;;;;;;;3.07;2.87;;;15.60;99.90;;;;;;5106328;28;20464;-82
2021/07/07 02:59:09;;;;;;;4.03;3.73;;;15.60;99.90;;;;;;5105622;28;20459;-80
2021/07/07 03:01:36;;;;;;;3.63;3.43;;;15.70;99.90;;;;;;5113141;28;20497;-83
2021/07/07 03:04:03;;;;;;;3.37;3.17;;;15.70;99.90;;;;;;5113859;28;20457;-80
2021/07/07 03:06:31;;;;;;;4.23;3.80;;;15.70;99.90;;;;;;5091310;28;20509;-81
2021/07/07 03:09:00;;;;;;;5.10;4.07;;;15.60;99.90;;;;;;5104884;28;20455;-81
2021/07/07 03:11:27;;;;;;;4.17;3.77;;;15.70;99.90;;;;;;5104989;28;20463;-81
2021/07/07 03:13:54;;;;;;;5.00;4.50;;;15.60;99.90;;;;;;5105874;28;20447;-80
2021/07/07 03:16:21;;;;;;;4.97;4.57;;;15.60;99.90;;;;;;5107321;28;20464;-81
2021/07/07 03:18:48;;;;;;;5.20;4.70;;;15.70;99.90;;;;;;5106371;28;20497;-86
2021/07/07 03:21:15;;;;;;;6.97;4.27;;;15.70;99.90;;;;;;5112724;28;20460;-83
2021/07/07 03:23:43;;;;;;;5.20;4.80;;;15.70;99.90;;;;;;5095184;28;20462;-80
2021/07/07 03:26:10;;;;;;;5.40;4.90;;;15.70;99.90;;;;;;5105735;28;20440;-80
2021/07/07 03:28:37;;;;;;;5.47;4.30;;;15.80;99.90;;;;;;5108586;28;20451;-82
2021/07/07 03:31:05;;;;;;;4.30;4.00;;;15.80;99.90;;;;;;5103988;28;20444;-81
2021/07/07 03:33:32;;;;;;;4.30;3.97;;;15.70;99.90;;;;;;5087338;28;20445;-80
2021/07/07 03:36:00;;;;;;;4.03;3.73;;;15.70;99.90;;;;;;5102146;28;20489;-81
2021/07/07 03:38:27;;;;;;;5.00;4.60;;;15.70;99.90;;;;;;5099866;28;20854;-82
2021/07/07 03:40:56;;;;;;;4.50;4.20;;;15.70;99.90;;;;;;5093371;28;20524;-83
2021/07/07 03:43:23;;;;;;;4.73;4.37;;;15.70;99.90;;;;;;5098849;28;20860;-81
2021/07/07 03:45:50;;;;;;;5.00;4.70;;;15.60;99.90;;;;;;5103050;28;20787;-81
2021/07/07 03:48:17;;;;;;;4.43;4.13;;;15.60;99.90;;;;;;5101946;28;20501;-84
2021/07/07 03:50:44;;;;;;;4.97;4.43;;;15.60;99.90;;;;;;5093756;28;20946;-81
2021/07/07 03:53:13;;;;;;;7.83;5.10;;;15.60;99.90;;;;;;5101275;28;21284;-81
2021/07/07 03:55:41;;;;;;;5.03;4.73;;;15.60;99.90;;;;;;5098775;28;20440;-83
2021/07/07 03:58:09;;;;;;;5.00;4.60;;;15.60;99.90;;;;;;5099073;28;20906;-83
2021/07/07 04:00:36;;;;;;;5.30;4.80;;;15.60;99.90;;;;;;5091306;28;20537;-84
2021/07/07 04:03:04;;;;;;;4.90;4.50;;;15.70;99.90;;;;;;5096521;28;20455;-81
2021/07/07 04:05:31;;;;;;;5.00;4.57;;;15.60;99.90;;;;;;5079190;28;20486;-82
2021/07/07 04:07:58;;;;;;;6.47;4.80;;;15.60;99.90;;;;;;5099842;28;20551;-85
2021/07/07 04:10:25;;;;;;;4.37;3.97;;;15.60;99.90;;;;;;5109037;28;20440;-83
2021/07/07 04:12:52;;;;;;;5.30;4.80;;;15.60;99.90;;;;;;5112026;28;20470;-83
2021/07/07 04:15:21;;;;;;;5.60;5.20;;;15.60;99.90;;;;;;5103040;28;20565;-87
2021/07/07 04:17:49;;;;;;;5.97;4.73;;;15.60;99.90;;;;;;5111492;28;20490;-82
2021/07/07 04:20:18;;;;;;;4.93;4.60;;;15.60;99.90;;;;;;5113933;28;20452;-82
2021/07/07 04:22:45;;;;;;;6.40;5.57;;;15.70;99.90;;;;;;5108887;28;20453;-81
2021/07/07 04:25:15;;;;;;;5.63;5.23;;;15.70;99.90;;;;;;5100115;28;21127;-81
2021/07/07 04:27:45;;;;;;;5.60;5.20;;;15.70;99.90;;;;;;5100464;28;20480;-82
2021/07/07 04:30:15;;;;;;;6.07;5.57;;;15.70;99.90;;;;;;5106078;28;20452;-88
2021/07/07 04:32:44;;;;;;;5.77;5.30;;;15.70;99.90;;;;;;5105775;28;20475;-79
2021/07/07 04:35:13;;;;;;;6.83;5.53;;;15.70;99.90;;;;;;5094317;28;20978;-81
2021/07/07 04:37:40;;;;;;;6.03;5.23;;;15.70;99.90;;;;;;5099296;28;20461;-79
2021/07/07 04:40:09;;;;;;;6.10;5.60;;;15.70;99.90;;;;;;5105804;28;21099;-81
2021/07/07 04:42:36;;;;;;;5.40;5.00;;;15.80;99.90;;;;;;5105852;28;20440;-82
2021/07/07 04:45:04;;;;;;;6.00;5.50;;;15.90;99.90;;;;;;5098201;28;20499;-80
2021/07/07 04:47:30;;;;;;;6.20;5.23;;;16.00;99.90;;;;;;5104133;28;20442;-79
2021/07/07 04:49:59;;;;;;;6.80;6.20;;;16.00;99.90;;;;;;5096974;28;20452;-82
2021/07/07 04:52:26;;;;;;;5.70;5.20;;;16.10;99.90;;;;;;5092588;28;20440;-80
2021/07/07 04:54:53;;;;;;;5.60;5.13;;;16.00;99.90;;;;;;5091712;28;20470;-80
2021/07/07 04:57:20;;;;;;;5.23;4.73;;;15.90;99.90;;;;;;5093053;28;20528;-80
2021/07/07 04:59:47;;;;;;;4.20;3.80;;;16.00;99.90;;;;;;5091238;28;20471;-79
2021/07/07 05:02:14;;;;;;;4.97;4.60;;;16.10;99.90;;;;;;5094271;28;20521;-79
2021/07/07 05:04:41;;;;;;;5.37;4.87;;;16.10;99.90;;;;;;5093149;28;20463;-78
2021/07/07 05:07:09;;;;;;;4.47;4.17;;;16.20;99.90;;;;;;5089532;28;20448;-81
2021/07/07 05:09:36;;;;;;;6.80;5.50;;;16.20;99.90;;;;;;5092890;28;20448;-81
2021/07/07 05:12:03;;;;;;;5.67;4.90;;;16.10;99.90;;;;;;5091522;28;20468;-80
2021/07/07 05:14:30;;;;;;;5.70;5.20;;;16.10;99.90;;;;;;5091129;28;20503;-80
2021/07/07 05:16:58;;;;;;;6.60;6.10;;;16.10;99.90;;;;;;5097431;28;20460;-79
2021/07/07 05:19:25;;;;;;;8.47;5.43;;;16.20;99.90;;;;;;5096369;28;21061;-80
2021/07/07 05:21:52;;;;;;;6.63;6.03;;;16.20;99.90;;;;;;5101327;28;20467;-80
2021/07/07 05:24:21;;;;;;;6.80;6.20;;;16.30;99.90;;;;;;5097529;28;20531;-82
2021/07/07 05:26:48;;;;;;;5.27;4.77;;;16.30;99.90;;;;;;5102131;28;20459;-80
2021/07/07 05:29:16;;;;;;;4.67;4.27;;;16.40;99.90;;;;;;5095229;28;20453;-81
2021/07/07 05:31:43;;;;;;;4.20;3.80;;;16.30;99.90;;;;;;5095778;28;20452;-81
2021/07/07 05:34:10;;;;;;;4.53;4.13;;;16.20;99.90;;;;;;5095300;28;20443;-76
2021/07/07 05:36:37;;;;;;;4.50;4.20;;;16.30;99.90;;;;;;5089568;28;20550;-80
2021/07/07 05:39:04;;;;;;;5.10;4.70;;;16.30;99.90;;;;;;5088820;28;20463;-77
2021/07/07 05:41:32;;;;;;;4.87;4.20;;;16.20;99.90;;;;;;5091026;28;20486;-76
2021/07/07 05:43:59;;;;;;;5.00;3.60;;;16.20;99.90;;;;;;5098340;28;20607;-79
2021/07/07 05:46:26;;;;;;;4.53;4.13;;;16.20;99.90;;;;;;5091441;28;21027;-75
2021/07/07 05:48:53;;;;;;;4.23;3.93;;;16.20;99.90;;;;;;5099065;28;20444;-80
2021/07/07 05:51:20;;;;;;;5.40;4.90;;;16.20;99.90;;;;;;5108633;28;20456;-85
2021/07/07 05:53:47;;;;;;;5.80;4.63;;;16.30;99.90;;;;;;5113242;27;20453;-83
2021/07/07 05:56:15;;;;;;;4.87;4.47;;;16.30;99.90;;;;;;5107954;28;20460;-84
2021/07/07 05:58:46;;;;;;;5.00;4.70;;;16.30;99.90;;;;;;5115981;28;20464;-84
2021/07/07 06:01:13;;;;;;;5.73;5.30;;;16.30;99.90;;;;;;5111803;28;20444;-83
2021/07/07 06:03:42;;;;;;;7.90;4.10;;;16.30;99.90;;;;;;5107554;28;20459;-83
2021/07/07 06:06:11;;;;;;;5.47;4.97;;;16.40;99.90;;;;;;5113892;28;20455;-83
2021/07/07 06:11:32;;;;;;;7.90;5.87;;;16.40;99.90;;;;;;5113021;28;20440;-83
2021/07/07 06:14:32;;;;;;;6.73;5.63;;;16.50;99.90;;;;;;5150574;27;1563361;-84
2021/07/07 06:16:59;;;;;;;6.57;5.97;;;16.60;99.90;;;;;;5191786;27;20226;-83
2021/07/07 06:19:31;;;;;;;6.07;5.07;;;16.70;99.90;;;;;;5166954;27;20447;-83
2021/07/07 06:22:00;;;;;;;5.60;5.13;;;16.70;99.90;;;;;;5149681;27;20452;-82
2021/07/07 06:24:28;;;;;;;4.40;4.10;;;16.70;99.90;;;;;;5168975;27;20455;-82
2021/07/07 06:26:56;;;;;;;4.50;4.10;;;16.70;99.90;;;;;;5173458;27;20443;-83
2021/07/07 06:29:25;;;;;;;4.77;4.43;;;16.70;99.90;;;;;;5170529;27;20955;-83
2021/07/07 06:31:52;;;;;;;4.30;3.50;;;16.80;99.90;;;;;;5157432;27;20454;-82
2021/07/07 06:34:20;;;;;;;4.87;4.40;;;16.80;99.90;;;;;;5173197;27;20456;-82
2021/07/07 06:36:47;;;;;;;4.40;4.10;;;16.70;99.90;;;;;;5175210;27;21082;-82
2021/07/07 06:39:14;;;;;;;4.60;4.10;;;16.70;99.90;;;;;;5177496;27;20513;-83
2021/07/07 06:41:45;;;;;;;3.97;3.63;;;16.70;99.90;;;;;;5175318;27;20445;-84
2021/07/07 06:44:12;;;;;;;4.20;3.70;;;16.80;99.90;;;;;;5171258;27;20903;-85
2021/07/07 06:46:40;;;;;;;3.97;3.70;;;16.70;99.90;;;;;;5179275;27;20477;-86
2021/07/07 06:49:07;;;;;;;3.93;3.63;;;16.70;99.90;;;;;;5173453;27;20485;-83
2021/07/07 06:51:36;;;;;;;4.77;4.17;;;16.80;99.90;;;;;;5183154;27;20441;-84
2021/07/07 06:54:03;;;;;;;4.27;3.90;;;16.70;99.90;;;;;;5170199;27;20486;-83
2021/07/07 06:56:30;;;;;;;4.70;4.30;;;16.70;99.90;;;;;;5176624;27;20430;-83
2021/07/07 06:58:57;;;;;;;3.53;3.17;;;16.80;99.90;;;;;;5172754;27;20462;-83
2021/07/07 07:01:24;;;;;;;4.00;3.60;;;16.90;99.90;;;;;;5171739;27;20475;-83
2021/07/07 07:03:53;;;;;;;4.30;3.90;;;16.90;99.90;;;;;;5169668;27;20457;-82
2021/07/07 07:06:24;;;;;;;4.47;4.17;;;17.00;99.90;;;;;;5182533;27;20437;-81
2021/07/07 07:08:51;;;;;;;4.07;3.70;;;17.10;99.90;;;;;;5179433;27;20455;-83
2021/07/07 07:11:19;;;;;;;4.13;3.73;;;17.40;99.60;;;;;;5175304;27;20512;-84
2021/07/07 07:13:48;;;;;;;4.87;4.47;;;17.50;97.50;;;;;;5178896;27;21959;-81
2021/07/07 07:16:15;;;;;;;6.13;4.30;;;17.40;95.90;;;;;;5150207;27;20476;-84
2021/07/07 07:18:42;;;;;;;4.03;3.63;;;17.50;95.00;;;;;;5164689;27;21024;-83
2021/07/07 07:21:11;;;;;;;3.67;3.37;;;17.40;95.70;;;;;;5173155;27;20553;-84
2021/07/07 07:23:38;;;;;;;13.03;5.77;;;17.40;96.80;;;;;;5166710;27;20453;-83
2021/07/07 07:26:06;;;;;;;11.63;4.87;;;17.20;94.90;;;;;;5160985;27;20449;-82
2021/07/07 07:28:34;;;;;;;4.83;4.43;;;17.50;98.10;;;;;;5146261;27;20458;-84
2021/07/07 07:31:01;;;;;;;6.73;4.60;;;17.70;97.90;;;;;;5151845;27;20831;-79
2021/07/07 07:33:28;;;;;;;3.97;3.63;;;17.70;94.40;;;;;;5147846;27;20867;-79
2021/07/07 07:35:55;;;;;;;6.83;3.27;;;17.60;93.80;;;;;;5142684;27;20491;-80
2021/07/07 07:38:31;;;;;;;8.00;5.30;;;17.40;92.20;;;;;;5144846;27;20802;-80
2021/07/07 07:40:58;;;;;;;11.63;5.53;;;17.40;92.80;;;;;;5145763;27;20810;-78
2021/07/07 07:43:26;;;;;;;12.30;5.07;;;17.30;93.00;;;;;;5149946;27;20492;-78
2021/07/07 07:45:56;;;;;;;4.57;3.70;;;17.30;97.20;;;;;;5149129;27;20519;-77
2021/07/07 07:48:23;;;;;;;4.90;3.80;;;17.60;95.00;;;;;;5150559;27;20445;-81
2021/07/07 07:50:50;;;;;;;4.20;3.80;;;17.80;91.90;;;;;;5138363;27;20462;-78
2021/07/07 07:53:17;;;;;;;4.10;3.70;;;18.00;91.50;;;;;;5154292;27;20574;-78
2021/07/07 07:55:46;;;;;;;6.47;4.47;;;17.90;93.10;;;;;;5157658;27;20511;-77
2021/07/07 07:58:17;;;;;;;10.10;4.70;;;17.70;94.40;;;;;;5149378;27;20488;-77
2021/07/07 08:00:44;;;;;;;5.40;4.40;;;17.60;94.40;;;;;;5141036;27;20523;-76
2021/07/07 08:03:11;;;;;;;4.70;4.30;;;17.50;95.30;;;;;;5148427;27;20453;-77
2021/07/07 08:05:38;;;;;;;5.50;4.60;;;17.50;95.20;;;;;;5151625;27;20443;-77
2021/07/07 08:08:06;;;;;;;6.97;5.77;;;17.60;95.50;;;;;;5163087;27;20463;-77
2021/07/07 08:10:33;;;;;;;7.67;6.07;;;17.70;96.80;;;;;;5146971;27;20475;-79
2021/07/07 08:13:02;;;;;;;7.60;7.00;;;17.80;93.50;;;;;;5152852;27;20505;-79
2021/07/07 08:15:29;;;;;;;7.60;6.93;;;17.80;93.70;;;;;;5150118;27;20471;-78
2021/07/07 08:17:57;;;;;;;13.70;7.83;;;17.70;94.30;;;;;;5145981;27;20984;-78
2021/07/07 08:20:24;;;;;;;8.00;7.30;;;17.60;95.10;;;;;;5142237;27;20503;-76
2021/07/07 08:22:52;;;;;;;6.30;5.80;;;17.50;96.70;;;;;;5145195;27;20470;-79
2021/07/07 08:25:20;;;;;;;7.63;6.93;;;17.50;94.40;;;;;;5140857;27;20455;-77
2021/07/07 08:27:47;;;;;;;7.07;6.47;;;17.40;95.40;;;;;;5142660;27;20546;-77
2021/07/07 08:30:17;;;;;;;9.27;7.07;;;17.40;95.80;;;;;;5155091;27;20966;-78
2021/07/07 08:32:44;;;;;;;8.03;7.37;;;17.60;96.20;;;;;;5150905;27;20449;-78
2021/07/07 08:35:12;;;;;;;17.97;8.50;;;17.70;95.00;;;;;;5144067;27;20508;-77
2021/07/07 08:37:40;;;;;;;14.87;8.40;;;18.00;93.10;;;;;;5154779;27;20454;-79
2021/07/07 08:40:08;;;;;;;9.63;6.70;;;18.40;91.30;;;;;;5152571;27;20500;-79
2021/07/07 08:42:36;;;;;;;15.23;7.67;;;18.80;90.70;;;;;;5146509;27;20461;-78
2021/07/07 08:45:07;;;;;;;55.70;12.43;;;18.90;90.20;;;;;;5149814;27;20514;-79
2021/07/07 08:47:37;;;;;;;20.30;8.93;;;19.00;89.70;;;;;;5140259;27;20550;-79
2021/07/07 08:50:07;;;;;;;43.33;11.30;;;19.20;88.80;;;;;;5144564;27;20461;-78
2021/07/07 08:52:34;;;;;;;56.85;14.48;;;19.20;85.80;;;;;;5143685;27;20560;-85
2021/07/07 08:55:01;;;;;;;30.13;9.57;;;19.30;87.00;;;;;;5150175;27;20191;-86
2021/07/07 08:57:30;;;;;;;12.87;6.83;;;19.30;87.80;;;;;;5153645;27;20446;-85
2021/07/07 08:59:56;;;;;;;7.40;6.33;;;19.10;85.70;;;;;;5158673;27;20442;-88
2021/07/07 09:02:26;;;;;;;26.47;8.57;;;19.30;86.80;;;;;;5159279;27;20457;-87
2021/07/07 09:04:56;;;;;;;17.77;7.83;;;19.30;85.60;;;;;;5162446;27;20458;-87
2021/07/07 09:07:23;;;;;;;15.13;7.70;;;19.20;86.20;;;;;;5154937;27;20439;-87
2021/07/07 09:09:52;;;;;;;7.60;6.53;;;19.20;87.30;;;;;;5154421;27;20453;-85
2021/07/07 09:12:22;;;;;;;7.10;5.77;;;19.10;87.40;;;;;;5156793;27;20990;-83
2021/07/07 09:14:52;;;;;;;7.53;5.50;;;19.30;87.60;;;;;;5161056;27;21036;-84
2021/07/07 09:17:21;;;;;;;5.03;4.50;;;19.40;86.90;;;;;;5145532;27;20474;-84
2021/07/07 09:19:49;;;;;;;5.50;4.97;;;19.50;86.20;;;;;;5147247;27;20461;-86
2021/07/07 09:22:24;;;;;;;6.47;4.10;;;19.40;85.00;;;;;;5148741;27;20441;-88
2021/07/07 09:25:02;;;;;;;6.17;5.67;;;19.30;85.90;;;;;;5149857;27;20452;-86
2021/07/07 09:27:35;;;;;;;6.00;5.40;;;19.10;86.00;;;;;;5124845;27;20459;-85
2021/07/07 09:30:07;;;;;;;5.50;5.07;;;19.00;86.00;;;;;;5144403;27;20453;-84
2021/07/07 09:32:42;;;;;;;6.43;5.27;;;19.00;87.10;;;;;;5155069;27;20484;-86
2021/07/07 09:35:10;;;;;;;6.07;5.47;;;18.70;86.80;;;;;;5150142;27;20528;-85
2021/07/07 09:37:42;;;;;;;5.20;4.70;;;18.70;89.30;;;;;;5157008;27;20799;-82
2021/07/07 09:40:12;;;;;;;5.23;4.83;;;19.00;88.90;;;;;;5147328;27;20925;-85
2021/07/07 09:42:41;;;;;;;4.83;4.43;;;19.00;87.80;;;;;;5154047;27;20435;-83
2021/07/07 09:45:10;;;;;;;4.47;4.17;;;19.30;87.80;;;;;;5142060;27;20515;-84
2021/07/07 09:47:39;;;;;;;5.57;4.60;;;19.30;86.90;;;;;;5154769;27;20470;-84
2021/07/07 09:50:07;;;;;;;6.47;4.90;;;19.10;87.50;;;;;;5151481;27;20589;-83
2021/07/07 09:52:35;;;;;;;5.30;4.80;;;19.30;88.30;;;;;;5153673;27;20498;-84
2021/07/07 09:55:08;;;;;;;7.70;5.50;;;19.40;86.90;;;;;;5153688;27;21538;-83
2021/07/07 09:57:44;;;;;;;8.03;4.97;;;19.60;86.80;;;;;;5156014;27;20454;-82
2021/07/07 10:00:14;;;;;;;5.30;4.80;;;19.90;86.60;;;;;;5144920;27;20524;-85
2021/07/07 10:02:42;;;;;;;6.50;4.93;;;20.10;84.80;;;;;;5152641;27;20452;-86
2021/07/07 10:05:14;;;;;;;4.27;3.50;;;20.20;85.40;;;;;;5152421;27;20540;-90
2021/07/07 10:07:42;;;;;;;5.40;3.53;;;20.20;84.30;;;;;;5161691;27;20442;-83
2021/07/07 10:10:12;;;;;;;3.33;2.90;;;20.20;83.60;;;;;;5154722;27;20848;-84
2021/07/07 10:12:42;;;;;;;3.50;3.23;;;20.10;82.50;;;;;;5150119;27;20453;-83
2021/07/07 10:15:11;;;;;;;3.97;3.10;;;20.00;82.70;;;;;;5148198;27;20468;-84
2021/07/07 10:17:40;;;;;;;3.30;3.10;;;20.00;82.60;;;;;;5147340;27;20567;-82
2021/07/07 10:20:09;;;;;;;4.70;3.30;;;20.10;82.40;;;;;;5172345;27;20500;-85
2021/07/07 10:22:37;;;;;;;3.40;3.10;;;20.40;82.30;;;;;;5148156;27;20464;-84
2021/07/07 10:25:07;;;;;;;3.83;3.50;;;20.40;80.00;;;;;;5150947;27;20472;-90
2021/07/07 10:27:37;;;;;;;3.50;3.27;;;20.30;81.00;;;;;;5141297;27;20844;-86
2021/07/07 10:30:05;;;;;;;3.80;3.50;;;20.50;81.80;;;;;;5136198;27;20446;-86
2021/07/07 10:32:33;;;;;;;4.07;3.77;;;20.60;80.70;;;;;;5139557;27;20442;-86
2021/07/07 10:35:06;;;;;;;4.13;3.63;;;20.70;80.90;;;;;;5139162;27;20508;-86
2021/07/07 10:37:35;;;;;;;4.50;3.93;;;20.90;80.10;;;;;;5142765;27;20464;-81
2021/07/07 10:40:24;;;;;;;3.30;3.10;;;20.80;78.80;;;;;;5137391;27;20508;-88
2021/07/07 10:42:52;;;;;;;3.80;3.50;;;21.20;79.00;;;;;;5154828;27;20433;-89
2021/07/07 10:45:41;;;;;;;6.20;4.27;;;21.50;77.60;;;;;;5160969;27;20884;-86
2021/07/07 10:48:27;;;;;;;4.20;3.20;;;21.20;78.30;;;;;;5142032;27;20449;-80
2021/07/07 10:50:55;;;;;;;3.30;3.00;;;21.50;76.70;;;;;;5152708;27;20535;-80
2021/07/07 10:53:24;;;;;;;3.83;3.53;;;21.60;76.60;;;;;;5151685;27;20457;-79
2021/07/07 10:55:51;;;;;;;3.73;3.20;;;21.80;75.50;;;;;;5145403;27;20456;-80
2021/07/07 10:58:30;;;;;;;3.67;3.00;;;22.20;76.00;;;;;;5141615;27;20453;-80
2021/07/07 11:00:58;;;;;;;4.33;2.80;;;22.80;74.30;;;;;;5144391;27;20985;-80
2021/07/07 11:03:37;;;;;;;3.10;2.80;;;22.60;72.10;;;;;;5153943;27;20975;-87
2021/07/07 11:06:26;;;;;;;3.30;2.60;;;22.50;73.00;;;;;;5159759;27;20558;-84
2021/07/07 11:09:13;;;;;;;2.47;2.37;;;22.20;72.70;;;;;;5151369;27;20455;-81
2021/07/07 11:11:41;;;;;;;3.43;3.13;;;22.20;72.90;;;;;;5158263;27;20462;-82
2021/07/07 11:14:21;;;;;;;8.80;3.90;;;22.10;72.30;;;;;;5154199;27;20910;-82
2021/07/07 11:16:54;;;;;;;3.97;3.67;;;21.40;73.50;;;;;;5129426;27;20817;-81
2021/07/07 11:19:47;;;;;;;3.27;3.07;;;21.00;75.50;;;;;;5140513;27;20476;-81
2021/07/07 11:22:16;;;;;;;3.37;3.17;;;21.00;75.60;;;;;;5144557;27;20450;-81
2021/07/07 11:24:48;;;;;;;3.47;2.90;;;21.00;75.00;;;;;;5152446;27;20808;-80
2021/07/07 11:27:15;;;;;;;6.40;3.10;;;21.00;75.40;;;;;;5149741;27;20859;-81
2021/07/07 11:29:45;;;;;;;4.27;2.70;;;21.20;75.90;;;;;;5157245;27;20439;-81
2021/07/07 11:32:27;;;;;;;2.93;2.73;;;21.50;76.50;;;;;;5160794;27;20451;-81
2021/07/07 11:34:58;;;;;;;4.10;3.80;;;22.00;75.30;;;;;;5161214;27;20480;-80
2021/07/07 11:37:27;;;;;;;3.60;3.33;;;22.20;73.40;;;;;;5146143;27;20462;-80
2021/07/07 11:40:16;;;;;;;3.97;3.67;;;21.90;73.50;;;;;;5146292;27;20444;-83
2021/07/07 11:42:59;;;;;;;3.77;3.40;;;21.70;73.10;;;;;;5148881;27;20460;-80
2021/07/07 11:45:32;;;;;;;4.03;3.70;;;22.10;72.40;;;;;;5154914;27;20445;-83
2021/07/07 11:48:03;;;;;;;4.00;3.70;;;22.70;71.40;;;;;;5155848;27;20708;-80
2021/07/07 11:50:31;;;;;;;4.30;3.90;;;22.70;71.80;;;;;;5159751;27;20463;-81
2021/07/07 11:53:00;;;;;;;6.90;4.03;;;23.20;71.90;;;;;;5156756;27;20459;-82
2021/07/07 11:55:57;;;;;;;3.47;3.23;;;23.60;70.60;;;;;;5163139;27;21211;-80
2021/07/07 11:58:33;;;;;;;4.37;4.07;;;23.80;69.60;;;;;;5159227;27;20480;-80
2021/07/07 12:01:06;;;;;;;5.20;3.83;;;23.30;68.20;;;;;;5140998;27;20520;-80
2021/07/07 12:03:33;;;;;;;3.90;3.70;;;23.00;68.90;;;;;;5158907;27;20483;-80
2021/07/07 12:06:04;;;;;;;4.43;4.03;;;23.10;69.10;;;;;;5167963;27;20442;-81
2021/07/07 12:08:34;;;;;;;3.63;3.43;;;22.90;68.50;;;;;;5160566;27;20495;-81
2021/07/07 12:11:13;;;;;;;3.20;3.00;;;23.10;68.40;;;;;;5146929;27;20505;-78
2021/07/07 12:13:42;;;;;;;3.60;3.27;;;23.20;67.30;;;;;;5140425;27;20464;-80
2021/07/07 12:16:20;;;;;;;3.40;3.10;;;23.30;67.50;;;;;;5141665;27;20498;-80
2021/07/07 12:18:48;;;;;;;3.10;2.70;;;23.30;67.40;;;;;;5141209;27;21107;-83
2021/07/07 12:21:28;;;;;;;2.90;2.60;;;23.30;66.30;;;;;;5145616;27;20463;-80
2021/07/07 12:23:57;;;;;;;2.93;2.70;;;23.10;66.60;;;;;;5146025;27;20458;-82
2021/07/07 12:26:27;;;;;;;2.33;2.00;;;23.20;65.30;;;;;;5153869;27;20446;-82
2021/07/07 12:28:57;;;;;;;2.60;2.50;;;23.10;65.10;;;;;;5155106;27;20490;-88
2021/07/07 12:31:27;;;;;;;4.90;2.40;;;23.50;65.90;;;;;;5145547;27;20463;-83
2021/07/07 12:33:55;;;;;;;3.37;2.20;;;23.70;65.30;;;;;;5146966;27;20452;-86
2021/07/07 12:36:28;;;;;;;2.73;2.53;;;23.70;65.10;;;;;;5150232;27;20463;-89
2021/07/07 12:38:58;;;;;;;2.97;2.47;;;24.00;64.80;;;;;;5162960;27;20471;-89
2021/07/07 12:41:37;;;;;;;3.00;2.80;;;24.20;63.70;;;;;;5145703;27;20446;-88
2021/07/07 12:44:10;;;;;;;3.30;3.00;;;24.50;63.70;;;;;;5149502;27;20570;-84
2021/07/07 12:46:52;;;;;;;2.83;2.63;;;24.40;63.50;;;;;;5144839;27;20542;-86
2021/07/07 12:49:23;;;;;;;3.67;3.40;;;24.20;63.90;;;;;;5142246;27;20536;-86
2021/07/07 12:51:52;;;;;;;2.30;2.20;;;24.10;63.20;;;;;;5137668;27;20460;-84
2021/07/07 12:54:21;;;;;;;3.30;2.77;;;23.90;63.90;;;;;;5160528;27;20485;-82
2021/07/07 12:56:59;;;;;;;3.63;3.33;;;24.00;63.70;;;;;;5157841;27;20718;-82
2021/07/07 12:59:27;;;;;;;2.77;2.57;;;23.60;63.80;;;;;;5135444;27;20538;-85